Terminal Aerodrome Forecast
Issued by NWS

Current Version | Previous Version | Text Only | Print | Product List | Glossary On
Versions: 1 2 3 4 5 6 7 8 9 10 11 12 13 14
000
FTAK31 PANC 160542
TAFAVD
TAF
PAVD 160542Z 1606/1706 VRB03KT 2SM -SN BR BKN012 OVC022
     FM161800 VRB03KT 5SM -SHSN BKN022 OVC035
      AMD LTD TO CLD VIS AND WIND=

USA.gov is the U.S. government's official web portal to all federal, state and local government web resources and services.